Time;durP1;ratioP1;P1;durP2;ratioP2;P2;SDS_P1;SDS_P2;PMS_P1;PMS_P2;Temp;Humidity;BMP_temperature;BMP_pressure;BME280_temperature;BME280_humidity;BME280_pressure;Samples;Min_cycle;Max_cycle;Signal;HPM_P1;HPM_P2
2022/08/11 00:01:58;;;;;;;3.85;1.87;;;;;;;24.11;36.71;98581.13;4455817;32;20089;-81
2022/08/11 00:04:26;;;;;;;7.68;2.12;;;;;;;22.38;40.02;98583.81;4455839;32;20100;-81
2022/08/11 00:06:53;;;;;;;4.45;1.90;;;;;;;21.95;41.09;98582.03;4442078;32;20131;-81
2022/08/11 00:09:23;;;;;;;5.70;2.00;;;;;;;23.66;37.75;98583.44;4441688;32;20419;-81
2022/08/11 00:11:53;;;;;;;5.20;1.95;;;;;;;23.81;37.18;98579.44;4441919;32;20124;-81
2022/08/11 00:14:29;;;;;;;7.45;2.00;;;;;;;24.68;35.62;98579.50;4455868;32;20093;-81
2022/08/11 00:17:14;;;;;;;5.60;1.90;;;;;;;25.48;33.79;98579.94;4442461;32;20505;-81
2022/08/11 00:19:45;;;;;;;6.40;1.75;;;;;;;25.67;33.30;98575.37;4442023;32;20153;-81
2022/08/11 00:22:33;;;;;;;4.85;1.80;;;;;;;25.84;33.11;98572.94;4455556;32;20107;-81
2022/08/11 00:25:10;;;;;;;4.12;1.90;;;;;;;25.71;33.15;98573.31;4455260;32;20095;-81
2022/08/11 00:27:39;;;;;;;7.53;1.80;;;;;;;25.28;33.72;98572.09;4455913;32;20097;-81
2022/08/11 00:30:09;;;;;;;3.97;1.80;;;;;;;25.33;33.66;98579.59;4441263;32;20538;-81
2022/08/11 00:32:38;;;;;;;8.02;1.92;;;;;;;25.15;33.84;98578.69;4455875;32;20558;-81
2022/08/11 00:35:08;;;;;;;3.70;1.80;;;;;;;24.45;35.06;98568.37;4428896;32;20140;-81
2022/08/11 00:37:55;;;;;;;7.05;1.85;;;;;;;24.66;34.54;98568.22;4443633;32;20101;-81
2022/08/11 00:40:29;;;;;;;7.43;2.00;;;;;;;24.67;34.84;98569.91;4455538;32;20115;-81
2022/08/11 00:43:38;;;;;;;4.10;1.70;;;;;;;24.43;35.05;98561.59;4441735;32;20093;-81
2022/08/11 00:46:28;;;;;;;4.57;1.90;;;;;;;24.14;36.04;98562.44;4428393;32;20120;-81
2022/08/11 00:49:10;;;;;;;5.90;1.77;;;;;;;24.24;35.87;98565.91;4441715;32;20441;-81
2022/08/11 00:52:11;;;;;;;5.43;1.87;;;;;;;24.60;35.33;98567.97;4455243;32;20101;-81
2022/08/11 00:54:55;;;;;;;7.53;1.87;;;;;;;23.65;37.36;98565.97;4455299;32;20454;-81
2022/08/11 00:57:50;;;;;;;6.22;2.00;;;;;;;24.49;35.30;98559.25;4455527;32;20077;-81
2022/08/11 01:00:25;;;;;;;4.30;1.90;;;;;;;23.60;37.13;98565.50;4455031;32;20391;-81
2022/08/11 01:03:25;;;;;;;8.77;2.12;;;;;;;23.36;37.89;98558.78;4441610;32;20168;-81
2022/08/11 01:06:22;;;;;;;6.60;1.90;;;;;;;23.20;37.96;98561.09;4454768;32;20132;-81
2022/08/11 01:09:20;;;;;;;6.47;2.07;;;;;;;23.53;37.14;98562.56;4454982;32;20130;-81
2022/08/11 01:12:14;;;;;;;6.68;1.87;;;;;;;23.94;36.33;98556.31;4456143;32;20158;-81
2022/08/11 01:14:47;;;;;;;4.80;2.12;;;;;;;23.92;36.20;98552.94;4443144;32;20172;-81
2022/08/11 01:17:39;;;;;;;5.25;1.80;;;;;;;24.46;35.06;98554.25;4457186;32;20092;-81
2022/08/11 01:20:43;;;;;;;5.55;1.80;;;;;;;24.88;34.17;98556.50;4456831;32;20085;-81
2022/08/11 01:23:24;;;;;;;;;;;;;;;24.26;35.28;98549.94;4457562;32;20097;-81
2022/08/11 01:26:39;;;;;;;6.60;1.92;;;;;;;23.86;36.36;98548.25;4456950;32;19980;-81
2022/08/11 01:29:08;;;;;;;4.37;1.90;;;;;;;23.96;36.24;98545.63;4443025;32;20120;-81
2022/08/11 01:32:28;;;;;;;4.70;2.00;;;;;;;23.60;36.82;98549.72;4457127;32;20175;-81
2022/08/11 01:35:19;;;;;;;5.40;2.03;;;;;;;23.38;36.90;98550.72;4414465;32;20154;-81
2022/08/11 01:38:26;;;;;;;6.40;2.00;;;;;;;23.95;35.68;98549.22;4457013;32;20452;-81
2022/08/11 01:41:08;;;;;;;3.30;1.70;;;;;;;23.97;35.83;98544.66;4456662;32;20085;-81
2022/08/11 01:46:45;;;;;;;6.07;1.95;;;;;;;23.67;36.36;98550.84;4456847;32;20402;-81
2022/08/11 01:49:23;;;;;;;7.57;1.92;;;;;;;23.29;37.35;98543.66;4456594;32;20080;-81
2022/08/11 01:52:23;;;;;;;6.85;1.98;;;;;;;22.48;38.95;98545.28;4456919;32;20471;-81
2022/08/11 01:55:18;;;;;;;6.87;1.77;;;;;;;22.84;38.44;98537.91;4456465;32;20088;-81
2022/08/11 01:58:05;;;;;;;5.82;1.98;;;;;;;23.78;36.59;98539.34;4443030;32;20161;-81
2022/08/11 02:00:45;;;;;;;4.30;2.17;;;;;;;24.14;36.01;98541.34;4456870;32;20100;-81
2022/08/11 02:03:39;;;;;;;6.68;2.50;;;;;;;23.77;37.00;98541.16;4442811;32;20088;-81
2022/08/11 02:06:54;;;;;;;5.12;2.00;;;;;;;24.03;36.77;98540.63;4456629;32;20137;-81
2022/08/11 02:09:42;;;;;;;9.15;2.22;;;;;;;23.56;37.68;98533.31;4444563;32;20153;-81
2022/08/11 02:12:26;;;;;;;8.55;2.00;;;;;;;23.78;37.67;98529.66;4443807;32;20101;-81
2022/08/11 02:15:14;;;;;;;6.55;2.10;;;;;;;24.47;36.29;98537.47;4456650;32;20115;-81
2022/08/11 02:18:04;;;;;;;6.07;2.03;;;;;;;23.43;38.37;98531.91;4442922;32;20124;-81
2022/08/11 02:23:54;;;;;;;3.67;1.90;;;;;;;23.66;38.10;98531.56;4444355;32;20152;-81
2022/08/11 02:26:36;;;;;;;4.72;2.05;;;;;;;23.72;38.18;98527.56;4444147;32;20120;-81
2022/08/11 02:29:21;;;;;;;6.45;2.03;;;;;;;23.29;39.19;98530.50;4456483;32;20092;-81
2022/08/11 02:35:19;;;;;;;4.00;1.80;;;;;;;24.09;37.82;98529.53;4456396;32;20115;-81
2022/08/11 02:38:14;;;;;;;5.12;1.83;;;;;;;24.03;37.91;98524.81;4456395;32;20097;-81
2022/08/11 02:40:58;;;;;;;4.60;1.90;;;;;;;24.02;37.71;98521.34;4442689;32;20103;-81
2022/08/11 02:43:40;;;;;;;5.20;1.87;;;;;;;23.89;38.16;98529.53;4442364;32;20169;-81
2022/08/11 02:46:58;;;;;;;5.97;2.10;;;;;;;23.45;38.97;98522.06;4443585;32;20116;-81
2022/08/11 02:49:54;;;;;;;5.03;2.00;;;;;;;23.26;40.00;98525.47;4432530;32;20172;-81
2022/08/11 02:52:49;;;;;;;3.67;2.00;;;;;;;23.70;39.49;98520.75;4445348;32;20084;-80
2022/08/11 02:55:31;;;;;;;5.28;2.30;;;;;;;23.00;41.16;98518.06;4442372;32;20170;-81
2022/08/11 02:58:35;;;;;;;6.35;2.12;;;;;;;22.50;41.54;98519.69;4444546;32;20166;-81
2022/08/11 03:01:15;;;;;;;8.05;2.53;;;;;;;22.45;41.12;98514.00;4442504;32;20484;-81
2022/08/11 03:04:03;;;;;;;6.28;2.58;;;;;;;23.57;38.74;98519.19;4442595;32;20144;-81
2022/08/11 03:06:34;;;;;;;;;;;;;;;23.44;38.95;98523.03;4442408;32;20101;-81
2022/08/11 03:09:36;;;;;;;6.22;2.05;;;;;;;23.56;38.44;98520.16;4442530;32;20286;-81
2022/08/11 03:18:01;;;;;;;3.92;1.80;;;;;;;22.48;41.36;98519.81;4456310;32;20133;-81
2022/08/11 03:20:50;;;;;;;6.15;2.10;;;;;;;23.47;39.32;98533.31;4455916;32;20105;-81
2022/08/11 03:23:55;;;;;;;6.53;2.30;;;;;;;22.62;41.16;98534.44;4456328;32;20116;-81
2022/08/11 03:26:37;;;;;;;5.43;2.35;;;;;;;21.64;43.68;98529.34;4440254;32;20093;-81
2022/08/11 03:29:23;;;;;;;5.57;2.17;;;;;;;22.29;42.37;98543.34;4455902;32;20097;-81
2022/08/11 03:32:12;;;;;;;4.28;2.00;;;;;;;22.35;42.08;98536.75;4456342;32;20105;-81
2022/08/11 03:34:40;;;;;;;7.07;2.40;;;;;;;22.62;41.43;98537.06;4454944;32;20439;-81
2022/08/11 03:43:31;;;;;;;3.92;2.08;;;;;;;22.92;41.38;98533.66;4456286;32;20156;-81
2022/08/11 03:46:09;;;;;;;4.80;2.08;;;;;;;23.48;40.40;98537.59;4456077;32;20084;-81
2022/08/11 03:48:39;;;;;;;7.07;2.70;;;;;;;22.85;42.07;98540.41;4455913;32;20120;-81
2022/08/11 03:51:17;;;;;;;4.90;2.17;;;;;;;22.80;42.49;98538.13;4442211;32;20193;-81
2022/08/11 03:54:23;;;;;;;5.45;2.40;;;;;;;22.86;42.54;98539.44;4455813;32;20709;-81
2022/08/11 03:57:18;;;;;;;6.53;2.60;;;;;;;22.77;42.89;98537.59;4456016;32;20156;-81
2022/08/11 04:00:17;;;;;;;6.25;2.60;;;;;;;22.89;42.73;98533.94;4442138;32;20106;-81
2022/08/11 04:03:22;;;;;;;3.95;2.10;;;;;;;23.16;42.33;98533.34;4441720;32;20153;-81
2022/08/11 04:06:33;;;;;;;5.45;2.17;;;;;;;24.00;40.61;98536.47;4455933;32;20194;-81
2022/08/11 04:09:51;;;;;;;6.80;2.50;;;;;;;24.49;39.35;98539.94;4455757;32;20077;-81
2022/08/11 04:12:49;;;;;;;8.30;2.30;;;;;;;24.26;39.16;98528.84;4455945;32;20092;-81
2022/08/11 04:18:45;;;;;;;9.15;2.58;;;;;;;24.01;39.51;98535.50;4455933;32;20101;-81
2022/08/11 04:21:45;;;;;;;9.02;2.70;;;;;;;23.43;40.27;98538.00;4455876;32;20436;-81
2022/08/11 04:24:17;;;;;;;7.00;2.40;;;;;;;23.15;41.07;98531.69;4455789;32;20081;-81
2022/08/11 04:27:25;;;;;;;8.48;2.30;;;;;;;23.28;41.15;98527.00;4455785;32;20161;-81
2022/08/11 04:30:13;;;;;;;5.75;2.30;;;;;;;24.39;39.05;98531.22;4455355;32;20127;-81
2022/08/11 04:32:57;;;;;;;4.57;2.20;;;;;;;24.88;37.81;98535.38;4442453;32;20093;-81
2022/08/11 04:36:01;;;;;;;7.65;2.20;;;;;;;24.85;38.16;98537.50;4455462;32;20602;-81
2022/08/11 04:38:44;;;;;;;6.37;2.00;;;;;;;24.99;36.97;98537.03;4455730;32;20161;-81
2022/08/11 04:45:08;;;;;;;9.50;2.20;;;;;;;25.59;36.75;98542.75;4425617;32;20163;-81
2022/08/11 05:04:01;;;;;;;14.60;3.97;;;;;;;27.87;34.11;98545.19;4455030;32;20124;-81
2022/08/11 05:06:33;;;;;;;13.98;2.78;;;;;;;28.62;33.24;98554.88;4455294;32;20426;-81
2022/08/11 05:09:22;;;;;;;8.95;2.58;;;;;;;29.95;31.96;98560.22;4455270;32;20099;-81
2022/08/11 05:12:07;;;;;;;10.88;2.97;;;;;;;30.84;30.21;98557.06;4441198;32;20458;-81
2022/08/11 05:35:40;;;;;;;9.40;2.25;;;;;;;32.44;27.94;98573.03;4454715;32;20081;-81
2022/08/11 05:58:05;;;;;;;6.32;2.10;;;;;;;34.89;23.18;98570.56;4439596;32;20081;-81
2022/08/11 06:00:41;;;;;;;6.22;1.52;;;;;;;35.28;22.69;98570.44;4441306;32;20109;-81
2022/08/11 06:03:09;;;;;;;4.00;1.60;;;;;;;34.35;23.51;98568.84;4442225;32;20112;-81
2022/08/11 06:05:53;;;;;;;12.18;2.10;;;;;;;34.87;22.80;98575.25;4455909;32;20107;-81
2022/08/11 06:08:37;;;;;;;3.40;1.50;;;;;;;34.40;23.26;98577.13;4443429;32;20463;-81
2022/08/11 06:11:04;;;;;;;5.87;1.50;;;;;;;33.05;24.68;98575.97;4442437;32;20196;-80
2022/08/11 06:13:34;;;;;;;2.62;1.40;;;;;;;31.72;25.90;98570.38;4456000;32;20150;-79
2022/08/11 06:16:01;;;;;;;1.48;1.20;;;;;;;30.65;27.12;98564.59;4454246;32;20172;-79
2022/08/11 06:18:33;;;;;;;4.93;1.37;;;;;;;29.56;28.83;98568.28;4454398;32;20073;-79
2022/08/11 06:21:00;;;;;;;2.90;1.40;;;;;;;28.31;30.07;98558.22;4454428;32;20136;-79
2022/08/11 06:23:31;;;;;;;2.55;1.48;;;;;;;29.35;29.54;98566.19;4441918;32;20112;-78
2022/08/11 06:26:07;;;;;;;4.72;1.77;;;;;;;28.75;30.09;98558.66;4429483;32;20119;-79
2022/08/11 06:28:37;;;;;;;3.40;1.40;;;;;;;28.83;30.33;98563.16;4440857;32;20107;-79
2022/08/11 06:31:12;;;;;;;4.18;1.80;;;;;;;28.14;31.54;98559.16;4441677;32;20100;-78
2022/08/11 06:34:09;;;;;;;3.67;1.40;;;;;;;28.39;31.27;98557.34;4455811;32;20156;-79
2022/08/11 06:36:53;;;;;;;3.55;1.40;;;;;;;27.59;31.96;98557.03;4455363;32;20107;-81
2022/08/11 06:39:24;;;;;;;3.92;1.50;;;;;;;28.72;30.58;98555.53;4454706;32;20084;-79
2022/08/11 06:42:04;;;;;;;5.78;1.58;;;;;;;28.42;31.13;98557.88;4454351;32;20093;-79
2022/08/11 06:44:39;;;;;;;2.55;1.20;;;;;;;29.23;29.94;98559.56;4440872;32;20112;-80
2022/08/11 06:47:11;;;;;;;1.45;1.02;;;;;;;28.38;30.75;98561.84;4454782;32;20438;-80
2022/08/11 06:52:36;;;;;;;3.92;1.30;;;;;;;29.00;29.77;98569.25;4455207;32;20093;-80
2022/08/11 06:55:11;;;;;;;4.72;1.30;;;;;;;29.58;29.75;98566.28;4456216;32;20473;-81
2022/08/11 07:00:46;;;;;;;5.10;1.40;;;;;;;28.18;30.24;98563.16;4443029;32;20099;-83
2022/08/11 07:03:17;;;;;;;7.43;1.40;;;;;;;26.59;32.97;98555.00;4441982;32;20192;-80
2022/08/11 07:05:50;;;;;;;3.75;1.40;;;;;;;26.84;33.56;98564.75;4442484;32;20183;-79
2022/08/11 07:17:41;;;;;;;2.42;1.25;;;;;;;28.22;28.64;98560.00;4444222;32;20511;-80
2022/08/11 07:31:40;;;;;;;1.50;1.20;;;;;;;30.32;26.57;98552.53;4443918;32;20076;-80
2022/08/11 07:34:17;;;;;;;2.17;1.05;;;;;;;29.95;27.21;98562.88;4442210;32;20077;-78
2022/08/11 07:36:54;;;;;;;4.55;1.40;;;;;;;28.34;28.50;98555.22;4442295;32;20109;-79
2022/08/11 07:39:24;;;;;;;1.67;0.98;;;;;;;29.23;27.78;98561.37;4441883;32;20121;-80
2022/08/11 07:41:55;;;;;;;2.65;1.30;;;;;;;29.89;26.83;98557.47;4442228;32;20089;-80
2022/08/11 07:44:27;;;;;;;3.40;1.37;;;;;;;29.78;27.44;98564.00;4442144;32;20146;-79
2022/08/11 07:52:33;;;;;;;;;;;;;;;27.82;29.81;98554.63;4444284;32;20144;-80
2022/08/11 07:55:05;;;;;;;3.47;1.42;;;;;;;28.94;28.33;98543.41;4441982;32;20032;-80
2022/08/11 08:17:47;;;;;;;4.05;1.20;;;;;;;30.36;26.84;98545.84;4455798;32;20145;-79
2022/08/11 08:20:44;;;;;;;2.97;1.33;;;;;;;28.60;28.30;98530.31;4444052;32;20412;-79
2022/08/11 08:23:11;;;;;;;;;;;;;;;30.23;26.70;98531.31;4455979;32;20367;-79
2022/08/11 08:25:39;;;;;;;3.30;1.15;;;;;;;29.93;26.32;98529.50;4428974;32;20000;-79
2022/08/11 08:28:12;;;;;;;6.45;1.40;;;;;;;29.80;26.64;98534.56;4428661;32;20462;-78
2022/08/11 08:30:46;;;;;;;3.15;1.02;;;;;;;30.39;26.38;98529.50;4441888;32;20104;-78
2022/08/11 08:33:35;;;;;;;2.67;1.17;;;;;;;31.20;25.91;98530.56;4442415;32;20376;-78
2022/08/11 08:36:10;;;;;;;4.03;1.48;;;;;;;30.46;25.59;98528.59;4455175;32;20104;-80
2022/08/11 08:38:39;;;;;;;5.43;1.45;;;;;;;31.56;24.34;98536.75;4442315;32;20344;-81
2022/08/11 08:41:07;;;;;;;1.67;1.10;;;;;;;30.47;26.29;98530.25;4441374;32;20123;-78
2022/08/11 08:43:39;;;;;;;2.92;1.30;;;;;;;31.91;24.62;98535.13;4429737;32;20492;-78
2022/08/11 08:46:18;;;;;;;1.95;1.15;;;;;;;30.54;25.97;98527.72;4455329;32;20105;-78
2022/08/11 08:48:47;;;;;;;3.75;1.40;;;;;;;29.77;26.60;98532.25;4455277;32;20165;-78
2022/08/11 08:54:22;;;;;;;3.90;1.40;;;;;;;31.62;24.40;98527.19;4445627;32;20093;-78
2022/08/11 08:56:51;;;;;;;4.43;1.40;;;;;;;32.08;24.43;98527.69;4454868;32;20160;-80
2022/08/11 08:59:21;;;;;;;6.10;1.50;;;;;;;33.61;22.32;98530.41;4441310;32;20077;-78
2022/08/11 09:01:55;;;;;;;2.03;1.10;;;;;;;32.84;22.89;98527.91;4441353;32;20128;-77
2022/08/11 09:04:23;;;;;;;4.93;1.20;;;;;;;31.43;24.02;98527.75;4440694;32;20163;-78
2022/08/11 09:06:51;;;;;;;3.53;1.40;;;;;;;31.19;24.97;98518.22;4441371;32;20111;-77
2022/08/11 09:09:19;;;;;;;4.93;1.60;;;;;;;31.02;25.27;98518.41;4441180;32;20325;-78
2022/08/11 09:11:50;;;;;;;3.53;1.30;;;;;;;30.17;26.26;98528.50;4428540;32;20092;-78
2022/08/11 09:14:18;;;;;;;3.25;1.50;;;;;;;28.00;28.60;98512.88;4455083;32;20443;-79
2022/08/11 09:16:46;;;;;;;4.15;1.27;;;;;;;30.35;25.72;98518.38;4428204;32;20451;-77
2022/08/11 09:19:16;;;;;;;3.30;1.30;;;;;;;32.28;23.26;98511.84;4441241;32;20082;-79
2022/08/11 09:26:58;;;;;;;2.83;1.20;;;;;;;31.36;24.51;98514.34;4441235;32;20100;-77
2022/08/11 09:27:24;;;;;;;5.45;1.40;;;;;;;33.77;21.89;98509.63;4443281;32;20147;-77
2022/08/11 09:29:52;;;;;;;3.53;1.58;;;;;;;33.33;21.72;98511.75;4454556;32;20166;-78
2022/08/11 09:32:20;;;;;;;2.35;1.20;;;;;;;33.17;22.45;98508.56;4441171;32;20107;-78
2022/08/11 09:34:50;;;;;;;2.08;1.12;;;;;;;32.01;24.06;98497.44;4443070;32;20160;-79
2022/08/11 09:40:28;;;;;;;3.30;1.10;;;;;;;31.06;24.36;98481.56;4456898;32;20135;-77
2022/08/11 09:45:50;;;;;;;3.28;1.25;;;;;;;31.60;22.94;98494.53;4456547;32;20163;-78
2022/08/11 09:48:19;;;;;;;2.22;1.40;;;;;;;30.78;24.21;98495.53;4456972;32;20155;-78
2022/08/11 09:50:52;;;;;;;2.60;1.10;;;;;;;30.58;24.33;98481.06;4443075;32;20077;-77
2022/08/11 09:53:20;;;;;;;3.35;1.30;;;;;;;30.16;24.84;98478.97;4456459;32;20093;-77
2022/08/11 09:58:12;;;;;;;3.50;1.40;;;;;;;30.37;24.56;98475.63;4456712;32;20097;-78
2022/08/11 09:58:52;;;;;;;3.67;1.40;;;;;;;31.42;23.21;98481.59;4456591;32;20167;-77
2022/08/11 10:01:28;;;;;;;2.65;1.20;;;;;;;33.60;20.68;98474.38;4442737;32;20140;-79
2022/08/11 10:04:03;;;;;;;1.27;1.00;;;;;;;32.99;20.98;98477.88;4443202;32;20101;-80
2022/08/11 10:09:22;;;;;;;3.37;1.42;;;;;;;30.81;24.22;98470.34;4445613;32;20085;-80
2022/08/11 10:11:55;;;;;;;2.25;1.25;;;;;;;30.90;23.29;98460.44;4456772;32;20085;-80
2022/08/11 10:17:12;;;;;;;1.40;1.00;;;;;;;29.03;24.75;98463.50;4444780;32;20466;-80
2022/08/11 10:19:40;;;;;;;2.65;1.20;;;;;;;30.04;23.41;98459.91;4442383;32;20473;-80
2022/08/11 10:27:57;;;;;;;3.20;1.40;;;;;;;28.90;24.37;98462.37;4444994;32;20146;-80
2022/08/11 10:36:30;;;;;;;2.67;1.58;;;;;;;28.91;24.25;98442.78;4456439;32;20092;-80
2022/08/11 10:38:58;;;;;;;3.40;1.37;;;;;;;30.84;22.56;98440.69;4456607;32;20161;-81
2022/08/11 10:44:42;;;;;;;2.60;1.30;;;;;;;29.03;25.38;98449.38;4446563;32;20138;-79
2022/08/11 11:01:03;;;;;;;3.47;1.42;;;;;;;30.65;23.05;98436.75;4444916;32;20150;-79
2022/08/11 11:03:33;;;;;;;2.00;1.10;;;;;;;31.80;22.48;98433.41;4441850;32;20101;-79
2022/08/11 11:06:10;;;;;;;2.85;1.33;;;;;;;30.14;22.60;98427.75;4442707;32;20411;-79
2022/08/11 11:09:10;;;;;;;2.50;1.33;;;;;;;28.62;24.67;98422.13;4444303;32;20463;-80
2022/08/11 11:20:20;;;;;;;3.47;1.50;;;;;;;29.63;23.10;98411.53;4456091;32;20097;-81
2022/08/11 11:23:11;;;;;;;3.28;1.37;;;;;;;29.93;22.60;98415.09;4432868;32;20089;-80
2022/08/11 11:26:08;;;;;;;3.78;1.50;;;;;;;30.06;22.40;98417.16;4456036;32;20152;-79
2022/08/11 11:28:53;;;;;;;2.80;1.37;;;;;;;30.26;23.49;98413.00;4456278;32;20095;-81
2022/08/11 11:31:35;;;;;;;5.22;1.80;;;;;;;29.57;23.93;98414.91;4455493;32;20093;-79
2022/08/11 11:34:38;;;;;;;2.90;1.45;;;;;;;30.62;22.51;98413.09;4456102;32;20133;-77
2022/08/11 11:37:21;;;;;;;6.12;1.62;;;;;;;31.03;22.33;98424.13;4434586;32;20089;-80
2022/08/11 11:39:48;;;;;;;1.85;1.25;;;;;;;31.49;22.13;98409.69;4442099;32;20101;-79
2022/08/11 11:42:17;;;;;;;5.82;1.90;;;;;;;29.03;24.56;98406.88;4441757;32;20115;-81
2022/08/11 11:44:46;;;;;;;3.05;1.50;;;;;;;27.96;25.69;98406.28;4455559;32;20145;-80
2022/08/11 11:47:15;;;;;;;7.45;1.80;;;;;;;29.20;23.74;98405.78;4455588;32;20101;-79
2022/08/11 11:49:42;;;;;;;3.83;1.60;;;;;;;31.48;20.29;98402.72;4441956;32;20164;-79
2022/08/11 11:52:17;;;;;;;3.22;1.50;;;;;;;31.63;21.34;98392.78;4455134;32;20097;-79
2022/08/11 11:54:50;;;;;;;2.42;1.40;;;;;;;31.78;20.75;98390.06;4441679;32;20152;-79
2022/08/11 12:03:02;;;;;;;2.20;1.50;;;;;;;33.79;19.26;98390.66;4455746;32;20101;-80
2022/08/11 12:05:32;;;;;;;3.03;1.50;;;;;;;34.22;19.58;98385.69;4441681;32;20123;-80
2022/08/11 12:08:16;;;;;;;4.82;1.40;;;;;;;32.32;21.23;98378.81;4455848;32;20093;-83
2022/08/11 12:10:48;;;;;;;5.95;1.33;;;;;;;30.97;22.68;98371.59;4455972;32;20488;-80
2022/08/11 12:16:02;;;;;;;4.30;1.50;;;;;;;27.63;26.13;98355.06;4444042;32;20184;-82
2022/08/11 12:18:52;;;;;;;2.65;1.42;;;;;;;27.90;25.99;98364.53;4455531;32;20093;-81
2022/08/11 12:21:19;;;;;;;3.10;1.60;;;;;;;26.90;25.80;98367.34;4455556;32;20080;-79
2022/08/11 12:29:36;;;;;;;4.45;1.42;;;;;;;28.38;23.89;98359.31;4455567;32;20089;-79
2022/08/11 12:32:09;;;;;;;2.85;1.48;;;;;;;29.20;21.83;98357.13;4442604;32;20107;-74
2022/08/11 12:34:36;;;;;;;2.78;1.45;;;;;;;29.64;21.62;98357.34;4455071;32;20086;-74
2022/08/11 12:37:11;;;;;;;2.00;1.42;;;;;;;29.45;22.37;98349.81;4454774;32;20405;-75
2022/08/11 12:45:52;;;;;;;2.10;1.27;;;;;;;31.97;21.23;98356.56;4444812;32;20115;-76
2022/08/11 12:54:58;;;;;;;4.93;1.70;;;;;;;30.38;22.80;98344.16;4445442;32;20138;-74
2022/08/11 13:05:55;;;;;;;3.28;1.48;;;;;;;28.29;25.49;98333.84;4455328;32;20124;-75
2022/08/11 13:08:24;;;;;;;4.45;1.90;;;;;;;27.99;25.46;98327.41;4456338;32;20117;-76
2022/08/11 13:13:41;;;;;;;3.95;1.65;;;;;;;28.16;25.15;98323.69;4445326;32;20089;-77
2022/08/11 13:17:20;;;;;;;6.53;1.67;;;;;;;28.95;24.46;98320.12;4444314;32;20085;-76
2022/08/11 13:19:24;;;;;;;4.00;1.70;;;;;;;29.72;23.40;98314.72;4456843;32;20157;-76
2022/08/11 13:21:52;;;;;;;5.40;1.27;;;;;;;29.34;23.83;98308.53;4456646;32;20129;-76
2022/08/11 13:24:20;;;;;;;5.40;1.55;;;;;;;31.18;22.07;98314.81;4456859;32;20171;-76
2022/08/11 13:26:49;;;;;;;5.28;1.85;;;;;;;31.36;21.87;98306.38;4442854;32;20179;-77
2022/08/11 13:29:20;;;;;;;3.65;1.70;;;;;;;31.01;22.20;98305.41;4429726;32;20097;-76
2022/08/11 13:31:48;;;;;;;3.95;1.58;;;;;;;31.06;22.08;98303.03;4443116;32;20127;-76
2022/08/11 13:34:16;;;;;;;3.12;1.60;;;;;;;31.94;21.14;98299.91;4442829;32;20108;-76
2022/08/11 13:36:46;;;;;;;2.28;1.30;;;;;;;31.16;21.88;98300.87;4456574;32;20371;-76
2022/08/11 13:39:13;;;;;;;4.47;1.70;;;;;;;32.06;20.95;98300.19;4456951;32;20111;-76
2022/08/11 13:41:45;;;;;;;6.97;1.70;;;;;;;33.87;19.01;98293.31;4457008;32;20166;-76
2022/08/11 13:44:15;;;;;;;4.05;1.65;;;;;;;33.67;19.19;98288.75;4442625;32;20426;-76
2022/08/11 13:46:51;;;;;;;24.65;3.65;;;;;;;34.33;18.76;98293.19;4443890;32;20081;-77
2022/08/11 13:49:20;;;;;;;10.73;2.20;;;;;;;34.26;18.47;98286.22;4456894;32;20432;-77
2022/08/11 13:51:47;;;;;;;3.60;1.42;;;;;;;35.13;17.72;98280.25;4442531;32;20121;-76
2022/08/11 13:54:21;;;;;;;2.67;1.50;;;;;;;35.48;17.50;98285.19;4442880;32;20097;-76
2022/08/11 13:56:52;;;;;;;3.08;1.20;;;;;;;33.82;18.08;98280.53;4456848;32;20101;-76
2022/08/11 13:59:21;;;;;;;3.37;1.45;;;;;;;30.83;21.69;98279.19;4443015;32;20467;-76
2022/08/11 14:02:04;;;;;;;5.90;1.90;;;;;;;29.57;23.74;98277.50;4432094;32;20113;-77
2022/08/11 14:04:56;;;;;;;3.15;1.48;;;;;;;29.78;23.63;98278.63;4444665;32;20421;-77
2022/08/11 14:07:26;;;;;;;2.65;1.60;;;;;;;30.37;22.92;98273.31;4456569;32;20143;-76
2022/08/11 14:09:58;;;;;;;4.62;1.48;;;;;;;30.08;23.69;98279.47;4442967;32;20508;-77
2022/08/11 14:15:31;;;;;;;4.78;1.77;;;;;;;28.29;25.62;98268.34;4444687;32;20168;-76
2022/08/11 14:18:04;;;;;;;5.28;1.75;;;;;;;27.45;26.68;98259.03;4441700;32;20481;-76
2022/08/11 14:23:48;;;;;;;2.08;1.40;;;;;;;28.10;25.87;98268.69;4444891;32;20101;-76
2022/08/11 14:26:22;;;;;;;4.12;1.50;;;;;;;28.48;25.30;98265.22;4456196;32;20175;-76
2022/08/11 14:28:55;;;;;;;3.47;1.55;;;;;;;28.39;25.08;98258.34;4443444;32;20537;-76
2022/08/11 14:31:24;;;;;;;2.65;1.37;;;;;;;28.72;25.06;98271.44;4442579;32;20462;-77
2022/08/11 14:33:54;;;;;;;3.87;1.40;;;;;;;29.06;24.48;98268.41;4442189;32;20144;-77
2022/08/11 14:36:37;;;;;;;3.45;1.40;;;;;;;30.01;23.52;98266.06;4456514;32;20168;-77
2022/08/11 14:39:07;;;;;;;;;;;;;;;28.95;24.13;98260.84;4442765;32;20081;-77
2022/08/11 14:47:27;;;;;;;5.62;1.67;;;;;;;29.93;23.48;98258.16;4456065;32;20168;-77
2022/08/11 14:49:56;;;;;;;3.65;1.50;;;;;;;30.75;22.71;98256.19;4456442;32;20124;-77
2022/08/11 14:52:42;;;;;;;2.28;1.35;;;;;;;29.46;23.85;98253.13;4456588;32;20089;-77
2022/08/11 14:57:57;;;;;;;2.53;1.40;;;;;;;29.29;24.02;98252.44;4456373;32;20510;-76
2022/08/11 15:00:24;;;;;;;3.42;1.67;;;;;;;29.29;24.24;98255.94;4429444;32;20085;-76
2022/08/11 15:03:11;;;;;;;3.03;1.40;;;;;;;29.22;24.27;98251.50;4442468;32;20112;-76
2022/08/11 15:05:48;;;;;;;4.68;1.60;;;;;;;29.21;24.08;98256.00;4456374;32;20235;-77
2022/08/11 15:08:53;;;;;;;3.70;1.70;;;;;;;28.46;24.97;98256.63;4456041;32;20085;-76
2022/08/11 15:13:59;;;;;;;4.43;1.58;;;;;;;28.42;25.04;98252.66;4456218;32;20216;-76
2022/08/11 15:19:14;;;;;;;5.17;1.57;;;;;;;29.63;23.75;98247.50;4444423;32;20089;-76
2022/08/11 15:24:26;;;;;;;2.97;1.55;;;;;;;29.87;23.97;98251.72;4456076;32;20097;-76
2022/08/11 15:38:06;;;;;;;2.30;1.42;;;;;;;31.23;22.38;98240.47;4444583;32;20531;-77
2022/08/11 15:46:33;;;;;;;4.05;1.60;;;;;;;29.72;24.24;98240.25;4444365;32;20156;-76
2022/08/11 15:49:07;;;;;;;4.00;1.50;;;;;;;29.78;24.00;98226.25;4455984;32;20393;-76
2022/08/11 15:51:50;;;;;;;4.82;1.75;;;;;;;30.29;23.52;98222.81;4442257;32;20164;-77
2022/08/11 15:54:22;;;;;;;5.28;1.70;;;;;;;30.57;23.21;98229.09;4455928;32;20073;-76
2022/08/11 15:56:51;;;;;;;2.53;1.42;;;;;;;29.89;24.00;98220.47;4455663;32;20114;-76
2022/08/11 16:05:01;;;;;;;5.03;1.60;;;;;;;30.44;23.45;98210.31;4443574;32;20143;-76
2022/08/11 16:07:34;;;;;;;4.05;1.67;;;;;;;30.69;23.34;98202.84;4442079;32;20170;-77
2022/08/11 16:10:22;;;;;;;2.78;1.60;;;;;;;30.35;24.00;98204.28;4455891;32;20093;-76
2022/08/11 16:16:13;;;;;;;2.33;1.37;;;;;;;29.10;25.46;98206.75;4442831;32;20107;-77
2022/08/11 16:18:40;;;;;;;3.92;1.35;;;;;;;27.61;26.77;98206.00;4444043;32;20143;-76
2022/08/11 16:21:12;;;;;;;3.67;1.50;;;;;;;27.49;26.38;98206.53;4455850;32;20119;-76
2022/08/11 16:24:00;;;;;;;4.53;1.40;;;;;;;27.96;25.93;98198.62;4443935;32;20085;-77
2022/08/11 16:26:28;;;;;;;3.28;1.50;;;;;;;27.28;26.56;98213.16;4441512;32;20101;-76
2022/08/11 16:29:15;;;;;;;3.37;1.40;;;;;;;27.38;26.49;98210.34;4443985;32;20158;-76
2022/08/11 16:32:15;;;;;;;3.40;1.50;;;;;;;27.94;25.71;98205.91;4441664;32;20123;-76
2022/08/11 16:40:04;;;;;;;2.45;1.60;;;;;;;27.55;26.49;98205.84;4443647;32;20118;-76
2022/08/11 16:48:27;;;;;;;4.07;1.37;;;;;;;28.18;25.71;98200.53;4443754;32;20105;-75
2022/08/11 16:51:07;;;;;;;3.62;1.60;;;;;;;28.03;25.92;98193.47;4442791;32;20464;-76
2022/08/11 16:53:37;;;;;;;3.12;1.50;;;;;;;28.15;25.84;98205.34;4441166;32;20127;-76
2022/08/11 16:56:27;;;;;;;5.28;1.60;;;;;;;28.20;25.73;98201.19;4455221;32;20174;-77
2022/08/11 16:59:14;;;;;;;3.62;1.62;;;;;;;27.92;26.18;98205.28;4441589;32;20108;-75
2022/08/11 17:01:55;;;;;;;4.45;1.58;;;;;;;28.48;25.59;98200.72;4443751;32;20131;-76
2022/08/11 17:13:37;;;;;;;3.70;1.60;;;;;;;28.41;25.88;98207.75;4444983;32;20097;-76
2022/08/11 17:16:05;;;;;;;5.28;1.60;;;;;;;27.83;26.56;98209.78;4441310;32;20591;-76
2022/08/11 17:18:46;;;;;;;3.30;1.70;;;;;;;27.83;26.74;98208.94;4455160;32;20085;-75
2022/08/11 17:21:25;;;;;;;5.47;1.80;;;;;;;27.20;27.69;98204.41;4454845;32;20120;-76
2022/08/11 17:24:03;;;;;;;5.65;1.60;;;;;;;26.77;28.21;98201.87;4454915;32;20157;-77
2022/08/11 17:29:24;;;;;;;8.77;2.10;;;;;;;27.65;27.31;98217.97;4454491;32;20119;-77
2022/08/11 17:37:26;;;;;;;4.22;1.70;;;;;;;26.93;29.19;98210.84;4443136;32;20165;-77